sensor_id;sensor_type;location;lat;lon;timestamp;P1;durP1;ratioP1;P2;durP2;ratioP2
54881;SDS011;40775;51.448;4.742;2024-03-25T00:01:47;7.25;;;2.55;;
54881;SDS011;40775;51.448;4.742;2024-03-25T00:04:13;3.72;;;1.60;;
54881;SDS011;40775;51.448;4.742;2024-03-25T00:06:39;4.68;;;2.08;;
54881;SDS011;40775;51.448;4.742;2024-03-25T00:09:06;6.68;;;2.25;;
54881;SDS011;40775;51.448;4.742;2024-03-25T00:11:33;5.82;;;2.30;;
54881;SDS011;40775;51.448;4.742;2024-03-25T00:13:59;8.43;;;2.90;;
54881;SDS011;40775;51.448;4.742;2024-03-25T00:16:25;5.45;;;2.05;;
54881;SDS011;40775;51.448;4.742;2024-03-25T00:18:51;4.88;;;2.42;;
54881;SDS011;40775;51.448;4.742;2024-03-25T00:21:17;7.85;;;2.22;;
54881;SDS011;40775;51.448;4.742;2024-03-25T00:23:43;4.25;;;2.05;;
54881;SDS011;40775;51.448;4.742;2024-03-25T00:26:09;6.07;;;2.65;;
54881;SDS011;40775;51.448;4.742;2024-03-25T00:28:35;4.70;;;2.08;;
54881;SDS011;40775;51.448;4.742;2024-03-25T00:31:02;4.85;;;2.50;;
54881;SDS011;40775;51.448;4.742;2024-03-25T00:33:28;5.35;;;2.40;;
54881;SDS011;40775;51.448;4.742;2024-03-25T00:35:54;9.10;;;2.83;;
54881;SDS011;40775;51.448;4.742;2024-03-25T00:38:20;5.18;;;2.47;;
54881;SDS011;40775;51.448;4.742;2024-03-25T00:40:46;9.02;;;2.88;;
54881;SDS011;40775;51.448;4.742;2024-03-25T00:43:12;6.32;;;2.90;;
54881;SDS011;40775;51.448;4.742;2024-03-25T00:45:39;5.00;;;2.33;;
54881;SDS011;40775;51.448;4.742;2024-03-25T00:48:06;7.25;;;2.70;;
54881;SDS011;40775;51.448;4.742;2024-03-25T00:50:32;7.35;;;2.72;;
54881;SDS011;40775;51.448;4.742;2024-03-25T00:52:58;4.47;;;2.35;;
54881;SDS011;40775;51.448;4.742;2024-03-25T00:55:24;4.93;;;2.45;;
54881;SDS011;40775;51.448;4.742;2024-03-25T00:57:50;6.15;;;2.28;;
54881;SDS011;40775;51.448;4.742;2024-03-25T01:00:17;6.85;;;2.10;;
54881;SDS011;40775;51.448;4.742;2024-03-25T01:02:43;4.43;;;1.88;;
54881;SDS011;40775;51.448;4.742;2024-03-25T01:05:09;4.65;;;1.92;;
54881;SDS011;40775;51.448;4.742;2024-03-25T01:07:35;5.05;;;1.95;;
54881;SDS011;40775;51.448;4.742;2024-03-25T01:10:01;3.60;;;1.80;;
54881;SDS011;40775;51.448;4.742;2024-03-25T01:12:28;7.45;;;2.83;;
54881;SDS011;40775;51.448;4.742;2024-03-25T01:14:54;5.05;;;1.95;;
54881;SDS011;40775;51.448;4.742;2024-03-25T01:17:20;8.50;;;1.65;;
54881;SDS011;40775;51.448;4.742;2024-03-25T01:19:46;7.53;;;1.95;;
54881;SDS011;40775;51.448;4.742;2024-03-25T01:22:12;4.40;;;1.73;;
54881;SDS011;40775;51.448;4.742;2024-03-25T01:24:39;4.95;;;1.58;;
54881;SDS011;40775;51.448;4.742;2024-03-25T01:27:05;3.47;;;1.45;;
54881;SDS011;40775;51.448;4.742;2024-03-25T01:29:31;4.30;;;1.42;;
54881;SDS011;40775;51.448;4.742;2024-03-25T01:31:58;3.80;;;1.70;;
54881;SDS011;40775;51.448;4.742;2024-03-25T01:34:25;3.70;;;1.73;;
54881;SDS011;40775;51.448;4.742;2024-03-25T01:36:51;4.30;;;1.60;;
54881;SDS011;40775;51.448;4.742;2024-03-25T01:39:18;4.18;;;1.40;;
54881;SDS011;40775;51.448;4.742;2024-03-25T01:41:44;6.32;;;1.63;;
54881;SDS011;40775;51.448;4.742;2024-03-25T01:44:10;3.55;;;1.27;;
54881;SDS011;40775;51.448;4.742;2024-03-25T01:46:36;4.63;;;1.38;;
54881;SDS011;40775;51.448;4.742;2024-03-25T01:49:04;4.35;;;1.45;;
54881;SDS011;40775;51.448;4.742;2024-03-25T01:51:30;5.45;;;1.75;;
54881;SDS011;40775;51.448;4.742;2024-03-25T01:53:57;3.92;;;1.50;;
54881;SDS011;40775;51.448;4.742;2024-03-25T01:56:25;5.40;;;1.63;;
54881;SDS011;40775;51.448;4.742;2024-03-25T01:58:52;5.85;;;1.83;;
54881;SDS011;40775;51.448;4.742;2024-03-25T02:01:18;4.80;;;1.10;;
54881;SDS011;40775;51.448;4.742;2024-03-25T02:03:46;3.35;;;1.55;;
54881;SDS011;40775;51.448;4.742;2024-03-25T02:06:13;3.45;;;1.45;;
54881;SDS011;40775;51.448;4.742;2024-03-25T02:08:43;4.95;;;1.40;;
54881;SDS011;40775;51.448;4.742;2024-03-25T02:11:10;4.25;;;1.50;;
54881;SDS011;40775;51.448;4.742;2024-03-25T02:13:37;3.72;;;1.45;;
54881;SDS011;40775;51.448;4.742;2024-03-25T02:16:04;8.35;;;1.70;;
54881;SDS011;40775;51.448;4.742;2024-03-25T02:18:31;5.47;;;1.83;;
54881;SDS011;40775;51.448;4.742;2024-03-25T02:20:57;5.70;;;1.30;;
54881;SDS011;40775;51.448;4.742;2024-03-25T02:23:25;3.47;;;1.20;;
54881;SDS011;40775;51.448;4.742;2024-03-25T02:25:52;4.80;;;1.33;;
54881;SDS011;40775;51.448;4.742;2024-03-25T02:28:19;3.35;;;1.45;;
54881;SDS011;40775;51.448;4.742;2024-03-25T02:30:46;3.30;;;1.10;;
54881;SDS011;40775;51.448;4.742;2024-03-25T02:33:12;5.03;;;1.40;;
54881;SDS011;40775;51.448;4.742;2024-03-25T02:35:39;5.50;;;1.85;;
54881;SDS011;40775;51.448;4.742;2024-03-25T02:38:07;2.72;;;1.15;;
54881;SDS011;40775;51.448;4.742;2024-03-25T02:40:34;5.20;;;1.65;;
54881;SDS011;40775;51.448;4.742;2024-03-25T02:43:01;2.13;;;1.27;;
54881;SDS011;40775;51.448;4.742;2024-03-25T02:45:27;4.82;;;1.70;;
54881;SDS011;40775;51.448;4.742;2024-03-25T02:47:54;4.47;;;1.90;;
54881;SDS011;40775;51.448;4.742;2024-03-25T02:50:20;3.65;;;1.50;;
54881;SDS011;40775;51.448;4.742;2024-03-25T02:52:46;4.28;;;1.55;;
54881;SDS011;40775;51.448;4.742;2024-03-25T02:55:12;3.45;;;1.35;;
54881;SDS011;40775;51.448;4.742;2024-03-25T02:57:38;3.58;;;1.38;;
54881;SDS011;40775;51.448;4.742;2024-03-25T03:00:04;6.20;;;1.63;;
54881;SDS011;40775;51.448;4.742;2024-03-25T03:02:31;3.47;;;1.55;;
54881;SDS011;40775;51.448;4.742;2024-03-25T03:04:57;4.05;;;1.35;;
54881;SDS011;40775;51.448;4.742;2024-03-25T03:07:24;6.35;;;1.35;;
54881;SDS011;40775;51.448;4.742;2024-03-25T03:09:50;3.38;;;1.52;;
54881;SDS011;40775;51.448;4.742;2024-03-25T03:12:16;6.07;;;1.70;;
54881;SDS011;40775;51.448;4.742;2024-03-25T03:14:42;3.22;;;1.40;;
54881;SDS011;40775;51.448;4.742;2024-03-25T03:17:08;7.70;;;1.45;;
54881;SDS011;40775;51.448;4.742;2024-03-25T03:19:34;4.25;;;1.42;;
54881;SDS011;40775;51.448;4.742;2024-03-25T03:22:00;7.78;;;1.60;;
54881;SDS011;40775;51.448;4.742;2024-03-25T03:24:27;3.90;;;1.35;;
54881;SDS011;40775;51.448;4.742;2024-03-25T03:26:53;1.95;;;0.88;;
54881;SDS011;40775;51.448;4.742;2024-03-25T03:29:19;3.33;;;1.23;;
54881;SDS011;40775;51.448;4.742;2024-03-25T03:31:45;3.65;;;1.48;;
54881;SDS011;40775;51.448;4.742;2024-03-25T03:34:11;3.80;;;1.58;;
54881;SDS011;40775;51.448;4.742;2024-03-25T03:36:37;3.92;;;1.13;;
54881;SDS011;40775;51.448;4.742;2024-03-25T03:39:05;5.15;;;1.48;;
54881;SDS011;40775;51.448;4.742;2024-03-25T03:41:34;2.90;;;1.35;;
54881;SDS011;40775;51.448;4.742;2024-03-25T03:44:01;2.88;;;1.27;;
54881;SDS011;40775;51.448;4.742;2024-03-25T03:46:27;2.22;;;1.17;;
54881;SDS011;40775;51.448;4.742;2024-03-25T03:48:53;2.33;;;1.00;;
54881;SDS011;40775;51.448;4.742;2024-03-25T03:51:19;3.03;;;1.20;;
54881;SDS011;40775;51.448;4.742;2024-03-25T03:53:45;2.97;;;1.25;;
54881;SDS011;40775;51.448;4.742;2024-03-25T03:56:12;5.47;;;1.38;;
54881;SDS011;40775;51.448;4.742;2024-03-25T03:58:38;3.78;;;1.38;;
54881;SDS011;40775;51.448;4.742;2024-03-25T04:01:04;5.18;;;1.55;;
54881;SDS011;40775;51.448;4.742;2024-03-25T04:03:30;3.22;;;1.13;;
54881;SDS011;40775;51.448;4.742;2024-03-25T04:05:56;4.22;;;1.52;;
54881;SDS011;40775;51.448;4.742;2024-03-25T04:08:22;3.72;;;1.65;;
54881;SDS011;40775;51.448;4.742;2024-03-25T04:10:48;2.45;;;1.08;;
54881;SDS011;40775;51.448;4.742;2024-03-25T04:13:14;3.80;;;1.40;;
54881;SDS011;40775;51.448;4.742;2024-03-25T04:15:41;5.80;;;1.60;;
54881;SDS011;40775;51.448;4.742;2024-03-25T04:18:08;2.85;;;1.15;;
54881;SDS011;40775;51.448;4.742;2024-03-25T04:20:38;4.78;;;1.25;;
54881;SDS011;40775;51.448;4.742;2024-03-25T04:23:06;5.05;;;1.73;;
54881;SDS011;40775;51.448;4.742;2024-03-25T04:25:33;3.28;;;1.55;;
54881;SDS011;40775;51.448;4.742;2024-03-25T04:28:02;2.20;;;1.20;;
54881;SDS011;40775;51.448;4.742;2024-03-25T04:30:31;5.00;;;1.65;;
54881;SDS011;40775;51.448;4.742;2024-03-25T04:32:58;4.20;;;1.60;;
54881;SDS011;40775;51.448;4.742;2024-03-25T04:35:25;4.85;;;1.38;;
54881;SDS011;40775;51.448;4.742;2024-03-25T04:37:51;3.25;;;1.00;;
54881;SDS011;40775;51.448;4.742;2024-03-25T04:40:18;6.28;;;1.55;;
54881;SDS011;40775;51.448;4.742;2024-03-25T04:42:45;3.35;;;1.10;;
54881;SDS011;40775;51.448;4.742;2024-03-25T04:45:11;3.17;;;1.35;;
54881;SDS011;40775;51.448;4.742;2024-03-25T04:47:37;2.33;;;0.80;;
54881;SDS011;40775;51.448;4.742;2024-03-25T04:50:04;2.30;;;1.20;;
54881;SDS011;40775;51.448;4.742;2024-03-25T04:52:31;3.28;;;1.25;;
54881;SDS011;40775;51.448;4.742;2024-03-25T04:54:57;3.55;;;1.58;;
54881;SDS011;40775;51.448;4.742;2024-03-25T04:57:23;3.38;;;1.02;;
54881;SDS011;40775;51.448;4.742;2024-03-25T04:59:50;3.83;;;1.25;;
54881;SDS011;40775;51.448;4.742;2024-03-25T05:02:16;3.80;;;1.50;;
54881;SDS011;40775;51.448;4.742;2024-03-25T05:04:42;3.17;;;1.48;;
54881;SDS011;40775;51.448;4.742;2024-03-25T05:07:08;2.42;;;1.13;;
54881;SDS011;40775;51.448;4.742;2024-03-25T05:09:34;3.92;;;1.05;;
54881;SDS011;40775;51.448;4.742;2024-03-25T05:12:00;4.15;;;1.65;;
54881;SDS011;40775;51.448;4.742;2024-03-25T05:14:26;4.43;;;1.40;;
54881;SDS011;40775;51.448;4.742;2024-03-25T05:16:52;2.65;;;1.25;;
54881;SDS011;40775;51.448;4.742;2024-03-25T05:19:18;3.63;;;1.27;;
54881;SDS011;40775;51.448;4.742;2024-03-25T05:21:44;3.60;;;1.58;;
54881;SDS011;40775;51.448;4.742;2024-03-25T05:24:11;3.35;;;1.45;;
54881;SDS011;40775;51.448;4.742;2024-03-25T05:26:37;7.05;;;2.40;;
54881;SDS011;40775;51.448;4.742;2024-03-25T05:29:03;8.23;;;2.22;;
54881;SDS011;40775;51.448;4.742;2024-03-25T05:31:29;5.57;;;1.95;;
54881;SDS011;40775;51.448;4.742;2024-03-25T05:33:56;3.92;;;1.73;;
54881;SDS011;40775;51.448;4.742;2024-03-25T05:36:22;3.85;;;1.75;;
54881;SDS011;40775;51.448;4.742;2024-03-25T05:38:48;2.88;;;1.42;;
54881;SDS011;40775;51.448;4.742;2024-03-25T05:41:14;5.68;;;1.80;;
54881;SDS011;40775;51.448;4.742;2024-03-25T05:43:40;9.02;;;2.67;;
54881;SDS011;40775;51.448;4.742;2024-03-25T05:46:06;5.22;;;1.92;;
54881;SDS011;40775;51.448;4.742;2024-03-25T05:48:32;6.15;;;2.47;;
54881;SDS011;40775;51.448;4.742;2024-03-25T05:51:02;6.50;;;2.40;;
54881;SDS011;40775;51.448;4.742;2024-03-25T05:53:34;5.78;;;2.55;;
54881;SDS011;40775;51.448;4.742;2024-03-25T05:56:01;5.32;;;2.00;;
54881;SDS011;40775;51.448;4.742;2024-03-25T05:58:27;5.05;;;1.85;;
54881;SDS011;40775;51.448;4.742;2024-03-25T06:00:53;5.80;;;2.00;;
54881;SDS011;40775;51.448;4.742;2024-03-25T06:03:19;7.00;;;2.83;;
54881;SDS011;40775;51.448;4.742;2024-03-25T06:05:46;4.88;;;2.00;;
54881;SDS011;40775;51.448;4.742;2024-03-25T06:08:13;6.03;;;2.65;;
54881;SDS011;40775;51.448;4.742;2024-03-25T06:10:52;6.47;;;2.70;;
54881;SDS011;40775;51.448;4.742;2024-03-25T06:13:21;5.85;;;2.67;;
54881;SDS011;40775;51.448;4.742;2024-03-25T06:15:47;9.95;;;3.45;;
54881;SDS011;40775;51.448;4.742;2024-03-25T06:18:13;6.60;;;2.78;;
54881;SDS011;40775;51.448;4.742;2024-03-25T06:20:39;5.97;;;2.65;;
54881;SDS011;40775;51.448;4.742;2024-03-25T06:23:06;6.13;;;2.30;;
54881;SDS011;40775;51.448;4.742;2024-03-25T06:25:32;5.43;;;2.45;;
54881;SDS011;40775;51.448;4.742;2024-03-25T06:28:00;8.20;;;2.67;;
54881;SDS011;40775;51.448;4.742;2024-03-25T06:30:26;5.30;;;2.67;;
54881;SDS011;40775;51.448;4.742;2024-03-25T06:33:11;7.35;;;3.20;;
54881;SDS011;40775;51.448;4.742;2024-03-25T06:35:56;7.30;;;3.45;;
54881;SDS011;40775;51.448;4.742;2024-03-25T06:38:22;6.60;;;2.33;;
54881;SDS011;40775;51.448;4.742;2024-03-25T06:40:48;6.47;;;3.22;;
54881;SDS011;40775;51.448;4.742;2024-03-25T06:43:16;6.15;;;2.67;;
54881;SDS011;40775;51.448;4.742;2024-03-25T06:45:44;13.45;;;5.13;;
54881;SDS011;40775;51.448;4.742;2024-03-25T06:48:10;7.93;;;3.72;;
54881;SDS011;40775;51.448;4.742;2024-03-25T06:50:36;4.00;;;1.92;;
54881;SDS011;40775;51.448;4.742;2024-03-25T06:53:02;5.38;;;1.77;;
54881;SDS011;40775;51.448;4.742;2024-03-25T06:55:28;5.10;;;1.75;;
54881;SDS011;40775;51.448;4.742;2024-03-25T06:57:54;3.80;;;1.65;;
54881;SDS011;40775;51.448;4.742;2024-03-25T07:00:20;3.45;;;1.60;;
54881;SDS011;40775;51.448;4.742;2024-03-25T07:02:47;3.22;;;1.60;;
54881;SDS011;40775;51.448;4.742;2024-03-25T07:05:14;4.40;;;1.58;;
54881;SDS011;40775;51.448;4.742;2024-03-25T07:07:40;5.47;;;1.70;;
54881;SDS011;40775;51.448;4.742;2024-03-25T07:10:07;4.15;;;1.38;;
54881;SDS011;40775;51.448;4.742;2024-03-25T07:12:33;3.80;;;1.63;;
54881;SDS011;40775;51.448;4.742;2024-03-25T07:14:59;5.28;;;2.20;;
54881;SDS011;40775;51.448;4.742;2024-03-25T07:17:26;2.40;;;1.13;;
54881;SDS011;40775;51.448;4.742;2024-03-25T07:19:52;2.33;;;1.35;;
54881;SDS011;40775;51.448;4.742;2024-03-25T07:22:18;3.15;;;1.40;;
54881;SDS011;40775;51.448;4.742;2024-03-25T07:24:44;5.10;;;2.15;;
54881;SDS011;40775;51.448;4.742;2024-03-25T07:27:10;5.32;;;1.90;;
54881;SDS011;40775;51.448;4.742;2024-03-25T07:29:36;3.92;;;1.63;;
54881;SDS011;40775;51.448;4.742;2024-03-25T07:32:03;3.30;;;1.38;;
54881;SDS011;40775;51.448;4.742;2024-03-25T07:34:29;3.42;;;1.70;;
54881;SDS011;40775;51.448;4.742;2024-03-25T07:36:56;3.08;;;1.30;;
54881;SDS011;40775;51.448;4.742;2024-03-25T07:39:22;4.75;;;1.50;;
54881;SDS011;40775;51.448;4.742;2024-03-25T07:41:52;4.90;;;1.40;;
54881;SDS011;40775;51.448;4.742;2024-03-25T07:44:18;2.60;;;1.50;;
54881;SDS011;40775;51.448;4.742;2024-03-25T07:46:44;2.30;;;1.55;;
54881;SDS011;40775;51.448;4.742;2024-03-25T07:49:11;5.75;;;1.25;;
54881;SDS011;40775;51.448;4.742;2024-03-25T07:51:37;4.53;;;1.60;;
54881;SDS011;40775;51.448;4.742;2024-03-25T07:54:05;2.88;;;1.58;;
54881;SDS011;40775;51.448;4.742;2024-03-25T07:56:31;3.10;;;1.38;;
54881;SDS011;40775;51.448;4.742;2024-03-25T07:59:02;6.03;;;1.90;;
54881;SDS011;40775;51.448;4.742;2024-03-25T08:01:29;4.63;;;1.52;;
54881;SDS011;40775;51.448;4.742;2024-03-25T08:03:55;4.25;;;1.20;;
54881;SDS011;40775;51.448;4.742;2024-03-25T08:06:21;5.53;;;1.52;;
54881;SDS011;40775;51.448;4.742;2024-03-25T08:08:47;2.28;;;1.10;;
54881;SDS011;40775;51.448;4.742;2024-03-25T08:11:14;3.88;;;1.65;;
54881;SDS011;40775;51.448;4.742;2024-03-25T08:13:40;4.38;;;1.90;;
54881;SDS011;40775;51.448;4.742;2024-03-25T08:16:06;3.65;;;1.10;;
54881;SDS011;40775;51.448;4.742;2024-03-25T08:18:33;4.70;;;1.55;;
54881;SDS011;40775;51.448;4.742;2024-03-25T08:20:59;3.47;;;1.60;;
54881;SDS011;40775;51.448;4.742;2024-03-25T08:23:25;2.95;;;1.27;;
54881;SDS011;40775;51.448;4.742;2024-03-25T08:25:51;4.90;;;1.73;;
54881;SDS011;40775;51.448;4.742;2024-03-25T08:28:17;3.65;;;1.67;;
54881;SDS011;40775;51.448;4.742;2024-03-25T08:30:43;3.90;;;2.05;;
54881;SDS011;40775;51.448;4.742;2024-03-25T08:33:09;6.32;;;1.98;;
54881;SDS011;40775;51.448;4.742;2024-03-25T08:35:35;3.60;;;1.75;;
54881;SDS011;40775;51.448;4.742;2024-03-25T08:38:03;4.80;;;1.50;;
54881;SDS011;40775;51.448;4.742;2024-03-25T08:40:29;3.75;;;1.33;;
54881;SDS011;40775;51.448;4.742;2024-03-25T08:42:55;4.10;;;1.70;;
54881;SDS011;40775;51.448;4.742;2024-03-25T08:45:21;3.88;;;1.55;;
54881;SDS011;40775;51.448;4.742;2024-03-25T08:47:47;4.53;;;1.63;;
54881;SDS011;40775;51.448;4.742;2024-03-25T08:50:13;2.83;;;1.55;;
54881;SDS011;40775;51.448;4.742;2024-03-25T08:52:39;6.07;;;2.30;;
54881;SDS011;40775;51.448;4.742;2024-03-25T08:55:06;3.17;;;1.15;;
54881;SDS011;40775;51.448;4.742;2024-03-25T08:57:32;3.75;;;1.50;;
54881;SDS011;40775;51.448;4.742;2024-03-25T08:59:58;3.05;;;1.63;;
54881;SDS011;40775;51.448;4.742;2024-03-25T09:02:24;3.38;;;2.03;;
54881;SDS011;40775;51.448;4.742;2024-03-25T09:04:50;4.47;;;2.42;;
54881;SDS011;40775;51.448;4.742;2024-03-25T09:07:18;5.18;;;1.63;;
54881;SDS011;40775;51.448;4.742;2024-03-25T09:09:44;4.72;;;2.10;;
54881;SDS011;40775;51.448;4.742;2024-03-25T09:12:29;5.57;;;2.40;;
54881;SDS011;40775;51.448;4.742;2024-03-25T09:14:55;3.50;;;1.70;;
54881;SDS011;40775;51.448;4.742;2024-03-25T09:17:21;5.53;;;2.28;;
54881;SDS011;40775;51.448;4.742;2024-03-25T09:19:48;4.65;;;2.15;;
54881;SDS011;40775;51.448;4.742;2024-03-25T09:22:14;5.47;;;2.05;;
54881;SDS011;40775;51.448;4.742;2024-03-25T09:24:40;4.38;;;1.30;;
54881;SDS011;40775;51.448;4.742;2024-03-25T09:27:06;5.32;;;1.88;;
54881;SDS011;40775;51.448;4.742;2024-03-25T09:29:32;4.78;;;2.20;;
54881;SDS011;40775;51.448;4.742;2024-03-25T09:31:58;4.32;;;1.52;;
54881;SDS011;40775;51.448;4.742;2024-03-25T09:34:24;4.80;;;1.27;;
54881;SDS011;40775;51.448;4.742;2024-03-25T09:36:50;3.03;;;1.00;;
54881;SDS011;40775;51.448;4.742;2024-03-25T09:39:16;3.90;;;2.17;;
54881;SDS011;40775;51.448;4.742;2024-03-25T09:41:42;4.22;;;1.30;;
54881;SDS011;40775;51.448;4.742;2024-03-25T09:44:10;2.50;;;1.27;;
54881;SDS011;40775;51.448;4.742;2024-03-25T09:46:36;3.28;;;1.40;;
54881;SDS011;40775;51.448;4.742;2024-03-25T09:49:02;2.95;;;1.50;;
54881;SDS011;40775;51.448;4.742;2024-03-25T09:51:31;4.72;;;1.75;;
54881;SDS011;40775;51.448;4.742;2024-03-25T09:53:57;4.28;;;1.67;;
54881;SDS011;40775;51.448;4.742;2024-03-25T09:56:23;3.75;;;1.30;;
54881;SDS011;40775;51.448;4.742;2024-03-25T09:58:49;2.75;;;1.25;;
54881;SDS011;40775;51.448;4.742;2024-03-25T10:01:16;1.42;;;0.70;;
54881;SDS011;40775;51.448;4.742;2024-03-25T10:03:42;3.30;;;1.40;;
54881;SDS011;40775;51.448;4.742;2024-03-25T10:06:09;4.68;;;1.77;;
54881;SDS011;40775;51.448;4.742;2024-03-25T10:08:35;2.88;;;1.52;;
54881;SDS011;40775;51.448;4.742;2024-03-25T10:11:02;3.05;;;1.52;;
54881;SDS011;40775;51.448;4.742;2024-03-25T10:13:28;3.17;;;1.48;;
54881;SDS011;40775;51.448;4.742;2024-03-25T10:15:55;2.45;;;1.45;;
54881;SDS011;40775;51.448;4.742;2024-03-25T10:18:21;5.22;;;1.48;;
54881;SDS011;40775;51.448;4.742;2024-03-25T10:20:48;1.83;;;0.85;;
54881;SDS011;40775;51.448;4.742;2024-03-25T10:23:25;3.13;;;1.42;;
54881;SDS011;40775;51.448;4.742;2024-03-25T10:25:51;2.92;;;1.45;;
54881;SDS011;40775;51.448;4.742;2024-03-25T10:28:18;2.40;;;1.27;;
54881;SDS011;40775;51.448;4.742;2024-03-25T10:30:44;2.00;;;0.80;;
54881;SDS011;40775;51.448;4.742;2024-03-25T10:33:11;2.85;;;1.25;;
54881;SDS011;40775;51.448;4.742;2024-03-25T10:35:39;2.05;;;0.85;;
54881;SDS011;40775;51.448;4.742;2024-03-25T10:38:06;3.47;;;1.05;;
54881;SDS011;40775;51.448;4.742;2024-03-25T10:40:36;2.72;;;0.85;;
54881;SDS011;40775;51.448;4.742;2024-03-25T10:43:08;4.28;;;1.20;;
54881;SDS011;40775;51.448;4.742;2024-03-25T10:45:48;1.98;;;0.80;;
54881;SDS011;40775;51.448;4.742;2024-03-25T10:48:28;1.70;;;0.95;;
54881;SDS011;40775;51.448;4.742;2024-03-25T10:51:02;2.53;;;1.00;;
54881;SDS011;40775;51.448;4.742;2024-03-25T10:53:32;1.45;;;0.70;;
54881;SDS011;40775;51.448;4.742;2024-03-25T10:56:00;1.08;;;0.57;;
54881;SDS011;40775;51.448;4.742;2024-03-25T10:58:27;2.40;;;0.85;;
54881;SDS011;40775;51.448;4.742;2024-03-25T11:00:54;2.78;;;0.85;;
54881;SDS011;40775;51.448;4.742;2024-03-25T11:03:22;2.50;;;0.85;;
54881;SDS011;40775;51.448;4.742;2024-03-25T11:05:49;4.97;;;1.08;;
54881;SDS011;40775;51.448;4.742;2024-03-25T11:08:16;8.65;;;1.08;;
54881;SDS011;40775;51.448;4.742;2024-03-25T11:10:43;2.33;;;1.10;;
54881;SDS011;40775;51.448;4.742;2024-03-25T11:13:21;1.85;;;0.80;;
54881;SDS011;40775;51.448;4.742;2024-03-25T11:15:47;4.10;;;1.00;;
54881;SDS011;40775;51.448;4.742;2024-03-25T11:18:15;2.42;;;0.82;;
54881;SDS011;40775;51.448;4.742;2024-03-25T11:20:43;2.20;;;1.02;;
54881;SDS011;40775;51.448;4.742;2024-03-25T11:25:38;3.22;;;1.15;;
54881;SDS011;40775;51.448;4.742;2024-03-25T11:28:07;2.15;;;1.08;;
54881;SDS011;40775;51.448;4.742;2024-03-25T11:30:35;1.88;;;0.80;;
54881;SDS011;40775;51.448;4.742;2024-03-25T11:33:02;2.15;;;0.98;;
54881;SDS011;40775;51.448;4.742;2024-03-25T11:35:30;2.03;;;0.70;;
54881;SDS011;40775;51.448;4.742;2024-03-25T11:38:02;2.43;;;0.50;;
54881;SDS011;40775;51.448;4.742;2024-03-25T11:40:28;1.88;;;0.73;;
54881;SDS011;40775;51.448;4.742;2024-03-25T11:42:54;1.52;;;0.85;;
54881;SDS011;40775;51.448;4.742;2024-03-25T11:45:21;1.13;;;0.60;;
54881;SDS011;40775;51.448;4.742;2024-03-25T11:47:49;1.55;;;0.80;;
54881;SDS011;40775;51.448;4.742;2024-03-25T11:50:16;2.53;;;0.80;;
54881;SDS011;40775;51.448;4.742;2024-03-25T11:52:44;1.67;;;0.50;;
54881;SDS011;40775;51.448;4.742;2024-03-25T11:55:15;1.83;;;0.80;;
54881;SDS011;40775;51.448;4.742;2024-03-25T11:57:42;2.22;;;0.70;;
54881;SDS011;40775;51.448;4.742;2024-03-25T12:00:08;1.48;;;0.73;;
54881;SDS011;40775;51.448;4.742;2024-03-25T12:02:43;2.72;;;0.95;;
54881;SDS011;40775;51.448;4.742;2024-03-25T12:05:13;3.20;;;0.85;;
54881;SDS011;40775;51.448;4.742;2024-03-25T12:07:39;1.17;;;0.68;;
54881;SDS011;40775;51.448;4.742;2024-03-25T12:10:06;0.70;;;0.50;;
54881;SDS011;40775;51.448;4.742;2024-03-25T12:12:51;1.50;;;0.75;;
54881;SDS011;40775;51.448;4.742;2024-03-25T12:15:17;0.70;;;0.60;;
54881;SDS011;40775;51.448;4.742;2024-03-25T12:17:43;3.80;;;1.20;;
54881;SDS011;40775;51.448;4.742;2024-03-25T12:20:09;2.33;;;0.93;;
54881;SDS011;40775;51.448;4.742;2024-03-25T12:22:36;2.45;;;0.82;;
54881;SDS011;40775;51.448;4.742;2024-03-25T12:25:03;2.50;;;0.90;;
54881;SDS011;40775;51.448;4.742;2024-03-25T12:27:31;1.98;;;0.95;;
54881;SDS011;40775;51.448;4.742;2024-03-25T12:29:59;1.05;;;0.60;;
54881;SDS011;40775;51.448;4.742;2024-03-25T12:32:40;1.95;;;0.90;;
54881;SDS011;40775;51.448;4.742;2024-03-25T12:35:14;3.65;;;1.15;;
54881;SDS011;40775;51.448;4.742;2024-03-25T12:37:42;2.25;;;0.73;;
54881;SDS011;40775;51.448;4.742;2024-03-25T12:40:12;1.48;;;0.70;;
54881;SDS011;40775;51.448;4.742;2024-03-25T12:42:54;2.55;;;1.00;;
54881;SDS011;40775;51.448;4.742;2024-03-25T12:45:20;1.10;;;0.55;;
54881;SDS011;40775;51.448;4.742;2024-03-25T12:47:48;1.35;;;0.80;;
54881;SDS011;40775;51.448;4.742;2024-03-25T12:50:15;3.08;;;1.00;;
54881;SDS011;40775;51.448;4.742;2024-03-25T12:52:42;2.30;;;0.95;;
54881;SDS011;40775;51.448;4.742;2024-03-25T12:55:08;1.80;;;0.90;;
54881;SDS011;40775;51.448;4.742;2024-03-25T12:57:35;1.33;;;0.68;;
54881;SDS011;40775;51.448;4.742;2024-03-25T13:00:01;2.88;;;1.05;;
54881;SDS011;40775;51.448;4.742;2024-03-25T13:02:30;3.70;;;1.02;;
54881;SDS011;40775;51.448;4.742;2024-03-25T13:04:56;1.30;;;0.57;;
54881;SDS011;40775;51.448;4.742;2024-03-25T13:07:22;1.85;;;0.60;;
54881;SDS011;40775;51.448;4.742;2024-03-25T13:09:49;1.65;;;0.80;;
54881;SDS011;40775;51.448;4.742;2024-03-25T13:12:15;1.63;;;0.63;;
54881;SDS011;40775;51.448;4.742;2024-03-25T13:14:41;1.75;;;0.68;;
54881;SDS011;40775;51.448;4.742;2024-03-25T13:17:08;2.25;;;0.90;;
54881;SDS011;40775;51.448;4.742;2024-03-25T13:19:34;1.33;;;0.52;;
54881;SDS011;40775;51.448;4.742;2024-03-25T13:22:00;1.85;;;0.60;;
54881;SDS011;40775;51.448;4.742;2024-03-25T13:24:26;1.05;;;0.60;;
54881;SDS011;40775;51.448;4.742;2024-03-25T13:26:52;0.50;;;0.50;;
54881;SDS011;40775;51.448;4.742;2024-03-25T13:29:18;2.53;;;0.77;;
54881;SDS011;40775;51.448;4.742;2024-03-25T13:31:44;1.67;;;0.70;;
54881;SDS011;40775;51.448;4.742;2024-03-25T13:34:10;0.50;;;0.40;;
54881;SDS011;40775;51.448;4.742;2024-03-25T13:36:36;2.05;;;0.63;;
54881;SDS011;40775;51.448;4.742;2024-03-25T13:39:03;1.30;;;0.70;;
54881;SDS011;40775;51.448;4.742;2024-03-25T13:41:29;3.13;;;0.68;;
54881;SDS011;40775;51.448;4.742;2024-03-25T13:43:55;0.90;;;0.55;;
54881;SDS011;40775;51.448;4.742;2024-03-25T13:46:21;1.40;;;0.60;;
54881;SDS011;40775;51.448;4.742;2024-03-25T13:48:47;2.75;;;0.82;;
54881;SDS011;40775;51.448;4.742;2024-03-25T13:51:13;1.13;;;0.70;;
54881;SDS011;40775;51.448;4.742;2024-03-25T13:53:39;1.67;;;0.60;;
54881;SDS011;40775;51.448;4.742;2024-03-25T13:56:05;1.13;;;0.55;;
54881;SDS011;40775;51.448;4.742;2024-03-25T13:58:32;1.70;;;0.60;;
54881;SDS011;40775;51.448;4.742;2024-03-25T14:00:58;0.82;;;0.50;;
54881;SDS011;40775;51.448;4.742;2024-03-25T14:03:24;1.38;;;0.43;;
54881;SDS011;40775;51.448;4.742;2024-03-25T14:05:50;1.05;;;0.50;;
54881;SDS011;40775;51.448;4.742;2024-03-25T14:08:16;2.63;;;0.63;;
54881;SDS011;40775;51.448;4.742;2024-03-25T14:10:42;2.20;;;0.63;;
54881;SDS011;40775;51.448;4.742;2024-03-25T14:13:09;1.67;;;0.63;;
54881;SDS011;40775;51.448;4.742;2024-03-25T14:15:35;0.90;;;0.30;;
54881;SDS011;40775;51.448;4.742;2024-03-25T14:18:01;1.98;;;0.68;;
54881;SDS011;40775;51.448;4.742;2024-03-25T14:20:27;2.15;;;0.88;;
54881;SDS011;40775;51.448;4.742;2024-03-25T14:22:54;1.95;;;0.70;;
54881;SDS011;40775;51.448;4.742;2024-03-25T14:25:20;4.80;;;0.63;;
54881;SDS011;40775;51.448;4.742;2024-03-25T14:27:46;0.43;;;0.43;;
54881;SDS011;40775;51.448;4.742;2024-03-25T14:30:12;1.30;;;0.65;;
54881;SDS011;40775;51.448;4.742;2024-03-25T14:32:40;0.82;;;0.57;;
54881;SDS011;40775;51.448;4.742;2024-03-25T14:35:06;1.15;;;0.40;;
54881;SDS011;40775;51.448;4.742;2024-03-25T14:37:32;1.88;;;0.60;;
54881;SDS011;40775;51.448;4.742;2024-03-25T14:39:58;1.42;;;0.70;;
54881;SDS011;40775;51.448;4.742;2024-03-25T14:42:25;0.95;;;0.50;;
54881;SDS011;40775;51.448;4.742;2024-03-25T14:44:51;1.27;;;0.43;;
54881;SDS011;40775;51.448;4.742;2024-03-25T14:47:17;1.63;;;0.55;;
54881;SDS011;40775;51.448;4.742;2024-03-25T14:49:43;0.57;;;0.32;;